Time;durP1;ratioP1;P1;durP2;ratioP2;P2;SDS_P1;SDS_P2;PMS_P1;PMS_P2;Temp;Humidity;BMP_temperature;BMP_pressure;BME280_temperature;BME280_humidity;BME280_pressure;Samples;Min_cycle;Max_cycle;Signal;HPM_P1;HPM_P2
2022/09/30 00:00:22;;;;;;;1.52;1.00;;;7.70;99.90;;;;;;5043863;28;20284;-75
2022/09/30 00:02:48;;;;;;;1.77;1.30;;;7.70;99.90;;;;;;5043644;28;20049;-75
2022/09/30 00:05:15;;;;;;;1.95;1.23;;;7.70;99.90;;;;;;5061925;28;20508;-76
2022/09/30 00:07:42;;;;;;;1.83;1.27;;;7.70;99.90;;;;;;5045654;28;20052;-76
2022/09/30 00:10:09;;;;;;;1.77;1.15;;;7.60;99.90;;;;;;5047529;28;20060;-75
2022/09/30 00:12:36;;;;;;;1.27;1.05;;;7.60;99.90;;;;;;5066479;28;20076;-75
2022/09/30 00:15:03;;;;;;;1.83;1.23;;;7.50;99.90;;;;;;5048779;28;20070;-76
2022/09/30 00:17:30;;;;;;;1.80;1.10;;;7.50;99.90;;;;;;5035956;28;20055;-76
2022/09/30 00:19:56;;;;;;;2.05;1.30;;;7.50;99.90;;;;;;5040316;28;20052;-75
2022/09/30 00:22:23;;;;;;;2.28;1.20;;;7.40;99.90;;;;;;5063786;28;20048;-75
2022/09/30 00:24:50;;;;;;;1.50;1.25;;;7.40;99.90;;;;;;5070392;28;20052;-76
2022/09/30 00:27:17;;;;;;;1.90;1.27;;;7.40;99.90;;;;;;5024406;28;20053;-76
2022/09/30 00:29:44;;;;;;;1.50;1.33;;;7.30;99.90;;;;;;5040519;28;20237;-76
2022/09/30 00:32:11;;;;;;;2.13;1.30;;;7.30;99.90;;;;;;5062239;28;20506;-76
2022/09/30 00:34:37;;;;;;;1.73;1.15;;;7.30;99.90;;;;;;5054536;28;20064;-76
2022/09/30 00:37:04;;;;;;;2.83;1.15;;;7.30;99.90;;;;;;5023765;28;20065;-76
2022/09/30 00:39:31;;;;;;;2.30;1.77;;;7.30;99.90;;;;;;5045914;28;20055;-76
2022/09/30 00:42:00;;;;;;;1.70;1.10;;;7.30;99.90;;;;;;5059035;28;20470;-75
2022/09/30 00:44:38;;;;;;;1.65;1.23;;;7.30;99.90;;;;;;5043347;28;20047;-76
2022/09/30 00:47:27;;;;;;;1.42;1.10;;;7.30;99.90;;;;;;5043357;28;20072;-76
2022/09/30 00:49:54;;;;;;;1.85;1.27;;;7.30;99.90;;;;;;5063553;28;20246;-76
2022/09/30 00:52:21;;;;;;;1.83;1.20;;;7.20;99.90;;;;;;5036663;28;20056;-76
2022/09/30 00:54:49;;;;;;;2.00;1.13;;;7.20;99.90;;;;;;5077944;28;20501;-76
2022/09/30 00:57:16;;;;;;;1.20;1.10;;;7.10;99.90;;;;;;5049635;28;20219;-75
2022/09/30 00:59:46;;;;;;;1.50;1.10;;;7.10;99.90;;;;;;5047089;28;20064;-75
2022/09/30 01:02:13;;;;;;;1.92;1.10;;;7.20;99.90;;;;;;5055008;28;20093;-76
2022/09/30 01:04:40;;;;;;;1.83;1.30;;;7.10;99.90;;;;;;5068383;28;20139;-76
2022/09/30 01:07:07;;;;;;;1.20;0.90;;;7.10;99.90;;;;;;5051635;28;20495;-75
2022/09/30 01:09:34;;;;;;;2.78;1.40;;;7.10;99.90;;;;;;5046455;28;20049;-76
2022/09/30 01:12:13;;;;;;;1.30;1.00;;;7.00;99.90;;;;;;5054858;28;20044;-75
2022/09/30 01:14:39;;;;;;;1.50;1.08;;;7.00;99.90;;;;;;5051478;28;20052;-75
2022/09/30 01:17:45;;;;;;;1.17;1.00;;;7.00;99.90;;;;;;5026280;28;20057;-76
2022/09/30 01:20:39;;;;;;;1.73;1.15;;;7.00;99.90;;;;;;5043622;28;20048;-76
2022/09/30 01:23:40;;;;;;;1.35;0.93;;;7.10;99.90;;;;;;5061057;28;20059;-76
2022/09/30 01:26:39;;;;;;;1.80;1.20;;;7.10;99.90;;;;;;5044917;28;20049;-76
2022/09/30 01:29:09;;;;;;;1.30;1.20;;;7.10;99.90;;;;;;5044322;28;20044;-75
2022/09/30 01:31:44;;;;;;;2.05;1.30;;;7.10;99.90;;;;;;5062981;28;20139;-75
2022/09/30 01:34:29;;;;;;;1.23;1.00;;;7.20;99.90;;;;;;5055180;28;20109;-75
2022/09/30 01:37:06;;;;;;;1.25;1.00;;;7.20;99.90;;;;;;5050856;28;20051;-76
2022/09/30 01:39:50;;;;;;;2.25;1.40;;;7.30;99.90;;;;;;5058463;28;20112;-76
2022/09/30 01:42:25;;;;;;;1.58;1.30;;;7.40;99.90;;;;;;5064518;28;20047;-76
2022/09/30 01:45:17;;;;;;;1.15;0.80;;;7.40;99.90;;;;;;5029064;28;20573;-76
2022/09/30 01:47:50;;;;;;;1.30;0.88;;;7.50;99.90;;;;;;5042459;28;20790;-76
2022/09/30 01:50:18;;;;;;;1.00;0.90;;;7.60;99.90;;;;;;5062289;28;20067;-76
2022/09/30 01:53:02;;;;;;;1.20;0.90;;;7.70;99.90;;;;;;5053440;28;20290;-76
2022/09/30 01:55:37;;;;;;;1.60;0.90;;;7.70;99.90;;;;;;5046154;28;20049;-75
2022/09/30 01:58:09;;;;;;;0.93;0.70;;;7.80;99.90;;;;;;5033392;28;20049;-75
2022/09/30 02:00:36;;;;;;;0.93;0.80;;;7.90;99.90;;;;;;5028708;28;20510;-76
2022/09/30 02:03:27;;;;;;;1.08;0.95;;;7.90;99.90;;;;;;5050565;28;20070;-76
2022/09/30 02:06:01;;;;;;;0.85;0.70;;;7.90;99.90;;;;;;5064681;28;20109;-76
2022/09/30 02:08:40;;;;;;;0.98;0.70;;;7.90;99.90;;;;;;5027969;28;20139;-76
2022/09/30 02:11:12;;;;;;;0.85;0.80;;;7.90;99.90;;;;;;5029097;28;20052;-76
2022/09/30 02:13:52;;;;;;;1.05;0.90;;;7.80;99.90;;;;;;5050136;28;20523;-76
2022/09/30 02:16:26;;;;;;;1.00;0.73;;;7.80;99.90;;;;;;5028445;28;20049;-76
2022/09/30 02:19:25;;;;;;;1.38;0.80;;;7.70;99.90;;;;;;5028469;28;20082;-75
2022/09/30 02:21:56;;;;;;;1.23;0.80;;;7.70;99.90;;;;;;5057993;28;20048;-75
2022/09/30 02:24:24;;;;;;;1.02;0.80;;;7.70;99.90;;;;;;5021549;28;20052;-76
2022/09/30 02:26:52;;;;;;;0.60;0.60;;;7.70;99.90;;;;;;5044519;28;20041;-76
2022/09/30 02:29:22;;;;;;;1.45;0.90;;;7.60;99.90;;;;;;5053736;28;20048;-76
2022/09/30 02:31:51;;;;;;;1.17;0.93;;;7.50;99.90;;;;;;5034537;28;20048;-76
2022/09/30 02:34:26;;;;;;;1.33;1.02;;;7.50;99.90;;;;;;5043534;28;20048;-76
2022/09/30 02:37:16;;;;;;;1.13;0.90;;;7.50;99.90;;;;;;5047639;28;20139;-76
2022/09/30 02:39:51;;;;;;;0.73;0.70;;;7.40;99.90;;;;;;5049748;28;20448;-76
2022/09/30 02:42:21;;;;;;;0.95;0.73;;;7.30;99.90;;;;;;5074344;28;20071;-76
2022/09/30 02:44:51;;;;;;;1.48;0.95;;;7.40;99.90;;;;;;5068088;28;20048;-75
2022/09/30 02:47:30;;;;;;;1.05;0.82;;;7.30;99.90;;;;;;5033543;28;20055;-75
2022/09/30 02:50:15;;;;;;;0.70;0.70;;;7.30;99.90;;;;;;5047495;28;20582;-75
2022/09/30 02:53:03;;;;;;;1.15;0.85;;;7.20;99.90;;;;;;5069779;28;20143;-75
2022/09/30 02:55:48;;;;;;;1.58;0.82;;;7.20;99.90;;;;;;5083775;28;20126;-75
2022/09/30 02:58:15;;;;;;;1.60;1.23;;;7.30;99.90;;;;;;5079312;28;20045;-75
2022/09/30 03:00:42;;;;;;;1.58;1.00;;;7.30;99.90;;;;;;5053108;28;20049;-75
2022/09/30 03:03:13;;;;;;;0.82;0.80;;;7.40;99.90;;;;;;5075855;28;20220;-75
2022/09/30 03:05:39;;;;;;;1.20;0.90;;;7.40;99.90;;;;;;5031166;28;20055;-77
2022/09/30 03:08:06;;;;;;;1.00;0.70;;;7.50;99.90;;;;;;5044704;28;20048;-75
2022/09/30 03:10:33;;;;;;;1.17;0.82;;;7.60;99.90;;;;;;5058290;28;20052;-75
2022/09/30 03:13:13;;;;;;;1.02;0.80;;;7.70;99.90;;;;;;5038032;28;20067;-75
2022/09/30 03:16:02;;;;;;;1.30;0.95;;;7.80;99.90;;;;;;5011713;28;20530;-75
2022/09/30 03:18:56;;;;;;;0.75;0.70;;;8.00;99.90;;;;;;5031384;28;20037;-75
2022/09/30 03:21:50;;;;;;;0.47;0.47;;;8.10;99.90;;;;;;5053887;28;20052;-75
2022/09/30 03:24:30;;;;;;;1.17;0.90;;;8.20;99.90;;;;;;5051304;28;20052;-75
2022/09/30 03:27:15;;;;;;;0.70;0.70;;;8.20;99.90;;;;;;5061805;28;20040;-75
2022/09/30 03:29:55;;;;;;;1.17;0.80;;;8.30;99.90;;;;;;5050312;28;20519;-75
2022/09/30 03:32:45;;;;;;;1.05;0.82;;;8.40;99.90;;;;;;5067570;28;20040;-75
2022/09/30 03:35:30;;;;;;;0.93;0.80;;;8.50;99.90;;;;;;5048605;28;20490;-75
2022/09/30 03:38:09;;;;;;;1.30;0.93;;;8.50;99.90;;;;;;5062248;28;20057;-75
2022/09/30 03:40:54;;;;;;;1.30;0.95;;;8.60;99.90;;;;;;5059886;28;20459;-76
2022/09/30 03:43:32;;;;;;;0.73;0.63;;;8.60;99.90;;;;;;5061403;28;20055;-75
2022/09/30 03:46:00;;;;;;;1.48;0.80;;;8.70;99.90;;;;;;5048683;28;20048;-75
2022/09/30 03:48:27;;;;;;;1.23;0.70;;;8.70;99.90;;;;;;5045565;28;20079;-75
2022/09/30 03:50:54;;;;;;;0.88;0.70;;;8.80;99.90;;;;;;5025768;28;20055;-75
2022/09/30 03:53:20;;;;;;;0.80;0.70;;;8.80;99.90;;;;;;5077364;28;20059;-75
2022/09/30 03:55:49;;;;;;;0.70;0.63;;;8.90;99.90;;;;;;5063789;28;20048;-76
2022/09/30 03:58:16;;;;;;;1.00;0.70;;;9.00;99.90;;;;;;5046058;28;20049;-75
2022/09/30 04:00:46;;;;;;;1.08;0.80;;;9.00;99.90;;;;;;5059682;28;20049;-75
2022/09/30 04:03:14;;;;;;;1.05;0.70;;;9.10;99.90;;;;;;5035864;28;20040;-75
2022/09/30 04:05:41;;;;;;;0.98;0.60;;;9.10;99.90;;;;;;5064675;28;20044;-75
2022/09/30 04:08:09;;;;;;;1.55;0.85;;;9.10;99.90;;;;;;5062697;28;20053;-75
2022/09/30 04:10:35;;;;;;;1.65;1.08;;;9.20;99.90;;;;;;5047672;28;20053;-76
2022/09/30 04:13:02;;;;;;;1.25;0.80;;;9.20;99.90;;;;;;5053010;28;20044;-75
2022/09/30 04:15:29;;;;;;;0.75;0.65;;;9.30;99.90;;;;;;5064749;28;20049;-75
2022/09/30 04:17:55;;;;;;;0.88;0.73;;;9.30;99.90;;;;;;5030673;28;20056;-76
2022/09/30 04:20:22;;;;;;;1.23;0.80;;;9.30;99.90;;;;;;5063308;28;20045;-75
2022/09/30 04:22:49;;;;;;;0.73;0.73;;;9.40;99.90;;;;;;5058881;28;20046;-75
2022/09/30 04:25:16;;;;;;;0.90;0.70;;;9.40;99.90;;;;;;5067763;28;20056;-75
2022/09/30 04:27:42;;;;;;;1.20;0.90;;;9.50;99.90;;;;;;5054492;28;20457;-75
2022/09/30 04:30:09;;;;;;;1.25;1.00;;;9.50;99.90;;;;;;5049143;28;20264;-75
2022/09/30 04:32:36;;;;;;;0.90;0.80;;;9.60;99.90;;;;;;5068813;28;20048;-75
2022/09/30 04:35:03;;;;;;;0.85;0.73;;;9.60;99.90;;;;;;5079884;28;20440;-76
2022/09/30 04:37:31;;;;;;;1.08;0.85;;;9.70;99.90;;;;;;5068959;28;20050;-76
2022/09/30 04:39:58;;;;;;;1.02;0.82;;;9.70;99.90;;;;;;5068924;28;20052;-76
2022/09/30 04:42:25;;;;;;;1.17;0.90;;;9.70;99.90;;;;;;5056000;28;20420;-76
2022/09/30 04:44:52;;;;;;;1.00;0.80;;;9.80;99.90;;;;;;5090342;28;20140;-75
2022/09/30 04:47:19;;;;;;;0.57;0.55;;;9.80;99.90;;;;;;5069739;28;20080;-76
2022/09/30 04:49:48;;;;;;;1.00;0.80;;;9.80;99.90;;;;;;5046336;28;20049;-75
2022/09/30 04:52:16;;;;;;;1.17;0.90;;;9.90;99.90;;;;;;5055620;28;20044;-75
2022/09/30 04:54:42;;;;;;;0.77;0.50;;;9.90;99.90;;;;;;5033225;28;20060;-75
2022/09/30 04:57:09;;;;;;;1.60;0.70;;;9.90;99.90;;;;;;5048105;28;20063;-75
2022/09/30 04:59:36;;;;;;;1.65;0.98;;;9.90;99.90;;;;;;5038967;28;20058;-76
2022/09/30 05:02:04;;;;;;;1.35;0.80;;;10.00;99.90;;;;;;5054853;28;20171;-76
2022/09/30 05:04:32;;;;;;;1.23;0.77;;;10.00;99.90;;;;;;5066816;28;20113;-75
2022/09/30 05:07:00;;;;;;;1.13;0.80;;;10.00;99.90;;;;;;5067075;28;20054;-75
2022/09/30 05:09:27;;;;;;;1.23;0.95;;;10.10;99.90;;;;;;5031399;28;20088;-75
2022/09/30 05:11:54;;;;;;;1.83;1.00;;;10.10;99.90;;;;;;5056279;28;20129;-75
2022/09/30 05:14:21;;;;;;;1.77;1.20;;;10.20;99.90;;;;;;5063325;28;20399;-76
2022/09/30 05:16:47;;;;;;;1.85;1.40;;;10.20;99.90;;;;;;5065435;28;20279;-75
2022/09/30 05:19:14;;;;;;;2.22;1.42;;;10.20;99.90;;;;;;5062727;28;20124;-77
2022/09/30 05:21:43;;;;;;;2.10;1.30;;;10.20;99.90;;;;;;5054944;28;20048;-78
2022/09/30 05:24:10;;;;;;;1.63;1.35;;;10.20;99.90;;;;;;5070038;28;20102;-78
2022/09/30 05:26:39;;;;;;;1.95;1.38;;;10.20;99.90;;;;;;5045717;28;20044;-79
2022/09/30 05:29:06;;;;;;;1.50;1.00;;;10.20;99.90;;;;;;5067820;28;20057;-79
2022/09/30 05:31:33;;;;;;;1.25;1.02;;;10.20;99.90;;;;;;5046210;28;20053;-78
2022/09/30 05:34:00;;;;;;;2.08;1.50;;;10.30;99.90;;;;;;5047616;28;20406;-79
2022/09/30 05:36:27;;;;;;;2.22;1.58;;;10.30;99.90;;;;;;5045064;28;20048;-79
2022/09/30 05:38:54;;;;;;;2.22;1.48;;;10.30;99.90;;;;;;5047174;28;20658;-79
2022/09/30 05:41:21;;;;;;;2.20;1.50;;;10.30;99.90;;;;;;5027799;28;20040;-79
2022/09/30 05:43:49;;;;;;;2.45;1.65;;;10.30;99.90;;;;;;5052722;28;20056;-79
2022/09/30 05:46:16;;;;;;;2.78;2.13;;;10.30;99.90;;;;;;5039456;28;20069;-78
2022/09/30 05:48:43;;;;;;;3.00;2.08;;;10.30;99.90;;;;;;5054881;28;20060;-79
2022/09/30 05:51:10;;;;;;;2.33;1.70;;;10.30;99.90;;;;;;5025415;28;20052;-78
2022/09/30 05:53:37;;;;;;;4.57;2.70;;;10.30;99.90;;;;;;5058314;28;20059;-79
2022/09/30 05:56:06;;;;;;;2.78;1.85;;;10.30;99.90;;;;;;5043809;28;20052;-78
2022/09/30 05:58:33;;;;;;;2.28;1.63;;;10.40;99.90;;;;;;5055421;28;20049;-79
2022/09/30 06:01:12;;;;;;;3.17;2.03;;;10.40;99.90;;;;;;5033947;28;20218;-78
2022/09/30 06:03:41;;;;;;;3.40;1.92;;;10.40;99.90;;;;;;5054228;28;20049;-79
2022/09/30 06:06:09;;;;;;;3.58;2.20;;;10.40;99.90;;;;;;5053762;28;20053;-79
2022/09/30 06:08:36;;;;;;;2.90;1.77;;;10.40;99.90;;;;;;5054999;28;20103;-78
2022/09/30 06:11:10;;;;;;;3.17;2.20;;;10.40;99.90;;;;;;5040462;28;20083;-78
2022/09/30 06:13:38;;;;;;;3.17;2.20;;;10.30;99.90;;;;;;5029038;28;20140;-78
2022/09/30 06:16:06;;;;;;;3.10;2.15;;;10.40;99.90;;;;;;5041604;28;20062;-78
2022/09/30 06:18:33;;;;;;;2.50;1.83;;;10.40;99.90;;;;;;5028950;28;20047;-78
2022/09/30 06:21:01;;;;;;;3.92;1.70;;;10.40;99.90;;;;;;5039725;28;20049;-80
2022/09/30 06:23:29;;;;;;;2.33;1.67;;;10.40;99.90;;;;;;5046203;28;20567;-78
2022/09/30 06:25:56;;;;;;;2.70;1.90;;;10.50;99.90;;;;;;5025202;28;20061;-79
2022/09/30 06:28:23;;;;;;;2.95;2.08;;;10.50;99.90;;;;;;5033990;28;20054;-79
2022/09/30 06:30:49;;;;;;;2.75;2.10;;;10.50;99.90;;;;;;5033269;28;20076;-79
2022/09/30 06:33:16;;;;;;;2.60;1.70;;;10.50;99.90;;;;;;5027886;28;20447;-79
2022/09/30 06:35:46;;;;;;;2.70;2.08;;;10.40;99.90;;;;;;5037002;28;20067;-79
2022/09/30 06:38:16;;;;;;;2.42;1.77;;;10.50;99.90;;;;;;5058530;28;20047;-79
2022/09/30 06:40:43;;;;;;;2.33;1.63;;;10.50;99.90;;;;;;5027508;28;20044;-79
2022/09/30 06:43:10;;;;;;;2.40;2.00;;;10.60;99.90;;;;;;5026456;28;20298;-79
2022/09/30 06:45:37;;;;;;;2.40;1.55;;;10.60;99.90;;;;;;5049926;28;20055;-78
2022/09/30 06:48:04;;;;;;;2.70;1.92;;;10.60;99.90;;;;;;5025527;28;20205;-80
2022/09/30 06:50:32;;;;;;;1.67;1.40;;;10.70;99.90;;;;;;5052618;28;20299;-78
2022/09/30 06:53:02;;;;;;;2.63;2.00;;;10.70;99.90;;;;;;5042755;28;20795;-77
2022/09/30 06:55:29;;;;;;;2.28;1.77;;;10.70;99.90;;;;;;5022220;28;20487;-80
2022/09/30 06:57:56;;;;;;;2.50;1.80;;;10.70;99.90;;;;;;5016671;28;20084;-77
2022/09/30 07:00:23;;;;;;;2.00;1.30;;;10.70;99.90;;;;;;5060481;28;20048;-78
2022/09/30 07:02:50;;;;;;;2.08;1.80;;;10.70;99.90;;;;;;5034647;28;20048;-80
2022/09/30 07:05:17;;;;;;;2.22;1.63;;;10.70;99.90;;;;;;5051045;28;20053;-78
2022/09/30 07:07:44;;;;;;;2.42;1.80;;;10.80;99.90;;;;;;5027277;28;20304;-78
2022/09/30 07:10:11;;;;;;;1.83;1.38;;;10.80;99.90;;;;;;5036784;28;20627;-78
2022/09/30 07:12:39;;;;;;;1.95;1.48;;;10.80;99.90;;;;;;5027628;28;20425;-79
2022/09/30 07:15:06;;;;;;;1.67;1.27;;;10.90;99.90;;;;;;5044278;28;20057;-78
2022/09/30 07:17:39;;;;;;;2.15;1.50;;;10.90;99.90;;;;;;5032848;28;20057;-78
2022/09/30 07:20:07;;;;;;;2.08;1.52;;;10.90;99.90;;;;;;5049426;28;20053;-78
2022/09/30 07:22:34;;;;;;;1.88;1.38;;;11.00;99.90;;;;;;5038673;28;20120;-79
2022/09/30 07:25:02;;;;;;;2.10;1.50;;;11.10;99.90;;;;;;5031380;28;20590;-77
2022/09/30 07:27:31;;;;;;;1.58;1.08;;;11.20;99.90;;;;;;5058083;28;20040;-78
2022/09/30 07:29:58;;;;;;;1.63;1.25;;;11.20;99.90;;;;;;5036502;28;20057;-78
2022/09/30 07:32:45;;;;;;;2.33;1.63;;;11.20;99.90;;;;;;5045114;28;20052;-78
2022/09/30 07:35:12;;;;;;;2.28;1.67;;;11.30;99.90;;;;;;5040929;28;20048;-78
2022/09/30 07:37:39;;;;;;;2.53;1.63;;;11.40;99.90;;;;;;5041356;28;20064;-79
2022/09/30 07:40:07;;;;;;;1.83;1.20;;;11.40;99.90;;;;;;5034245;28;20143;-78
2022/09/30 07:42:36;;;;;;;1.98;1.40;;;11.40;99.90;;;;;;5053234;28;20063;-79
2022/09/30 07:45:03;;;;;;;1.90;1.23;;;11.40;99.90;;;;;;5018088;28;20213;-76
2022/09/30 07:47:30;;;;;;;2.28;1.38;;;11.40;99.90;;;;;;5022088;28;20508;-77
2022/09/30 07:49:59;;;;;;;2.00;1.35;;;11.40;99.90;;;;;;5044544;28;20427;-76
2022/09/30 07:52:25;;;;;;;1.20;1.00;;;11.30;99.90;;;;;;5040443;28;20512;-76
2022/09/30 07:54:52;;;;;;;2.08;1.40;;;11.40;99.90;;;;;;5030611;28;20052;-76
2022/09/30 07:57:20;;;;;;;1.58;1.27;;;11.40;99.90;;;;;;5043930;28;20158;-76
2022/09/30 07:59:47;;;;;;;2.33;1.63;;;11.40;99.90;;;;;;5065767;28;20045;-76
2022/09/30 08:02:15;;;;;;;2.22;1.55;;;11.40;99.90;;;;;;5036521;28;20052;-76
2022/09/30 08:04:42;;;;;;;2.10;1.65;;;11.50;99.90;;;;;;5035590;28;20053;-76
2022/09/30 08:07:10;;;;;;;2.47;1.85;;;11.60;99.90;;;;;;5046920;28;20048;-76
2022/09/30 08:09:37;;;;;;;3.47;3.00;;;11.70;99.90;;;;;;5028191;28;20048;-76
2022/09/30 08:12:04;;;;;;;2.67;2.20;;;11.80;99.90;;;;;;5040600;28;20044;-76
2022/09/30 08:14:31;;;;;;;2.85;2.20;;;12.00;99.90;;;;;;5050348;28;20044;-76
2022/09/30 08:16:59;;;;;;;2.90;2.40;;;12.20;99.90;;;;;;5050389;28;20397;-78
2022/09/30 08:19:27;;;;;;;4.07;3.58;;;12.30;99.90;;;;;;5046447;28;20053;-78
2022/09/30 08:21:54;;;;;;;4.20;3.50;;;12.60;99.90;;;;;;5023479;28;20347;-78
2022/09/30 08:24:22;;;;;;;4.13;3.58;;;12.80;99.90;;;;;;5044435;28;20045;-78
2022/09/30 08:26:49;;;;;;;4.10;3.50;;;13.00;99.90;;;;;;5014042;28;20057;-77
2022/09/30 08:29:17;;;;;;;4.45;4.05;;;13.10;99.90;;;;;;5052782;28;20048;-78
2022/09/30 08:31:55;;;;;;;4.90;3.75;;;13.30;99.90;;;;;;5037055;28;20085;-78
2022/09/30 08:34:22;;;;;;;4.20;3.80;;;13.50;99.90;;;;;;5071800;28;20306;-78
2022/09/30 08:36:49;;;;;;;4.05;3.65;;;13.70;99.90;;;;;;5033416;28;20051;-78
2022/09/30 08:39:16;;;;;;;4.28;3.60;;;13.90;99.90;;;;;;5049211;28;20621;-78
2022/09/30 08:41:57;;;;;;;3.83;3.22;;;14.10;99.90;;;;;;5031411;28;20744;-78
2022/09/30 08:44:42;;;;;;;3.72;3.25;;;14.30;99.90;;;;;;5026944;28;20049;-78
2022/09/30 08:47:26;;;;;;;4.43;4.03;;;14.60;99.90;;;;;;5028472;28;20522;-77
2022/09/30 08:50:12;;;;;;;3.95;3.55;;;14.70;99.90;;;;;;5070781;28;20052;-77
2022/09/30 08:53:00;;;;;;;3.42;3.05;;;14.90;99.90;;;;;;5056228;28;20040;-78
2022/09/30 08:55:40;;;;;;;3.60;3.28;;;15.10;99.90;;;;;;5036361;28;20800;-78
2022/09/30 08:58:34;;;;;;;4.13;3.47;;;15.30;99.90;;;;;;5034030;28;20049;-79
2022/09/30 09:01:06;;;;;;;;;;;15.40;99.90;;;;;;5049076;28;20053;-78
2022/09/30 09:03:33;;;;;;;3.60;3.05;;;15.40;99.90;;;;;;5050204;28;19924;-79
2022/09/30 09:06:06;;;;;;;3.92;3.53;;;15.50;99.90;;;;;;5040752;28;20075;-78
2022/09/30 09:08:35;;;;;;;4.07;3.10;;;15.40;99.90;;;;;;5046298;28;20150;-77
2022/09/30 09:11:08;;;;;;;3.45;3.05;;;15.50;99.90;;;;;;5061972;28;21283;-78
2022/09/30 09:13:35;;;;;;;5.05;3.38;;;15.60;99.90;;;;;;5059336;28;20054;-81
2022/09/30 09:16:16;;;;;;;3.80;3.40;;;15.60;99.90;;;;;;5050950;28;20553;-78
2022/09/30 09:18:52;;;;;;;4.00;3.10;;;15.70;99.90;;;;;;5050560;28;20489;-77
2022/09/30 09:21:56;;;;;;;3.65;3.35;;;15.80;99.90;;;;;;5043319;28;20075;-77
2022/09/30 09:24:23;;;;;;;;;;;15.80;99.90;;;;;;5044885;28;20677;-77
2022/09/30 09:26:51;;;;;;;3.50;3.20;;;15.90;99.90;;;;;;5040785;28;19925;-77
2022/09/30 09:29:39;;;;;;;3.95;3.58;;;15.90;99.90;;;;;;5024133;28;20057;-77
2022/09/30 09:32:14;;;;;;;3.60;3.30;;;16.00;99.90;;;;;;5044268;28;20049;-77
2022/09/30 09:34:41;;;;;;;3.72;3.30;;;16.10;99.90;;;;;;5025522;28;20488;-76
2022/09/30 09:38:23;;;;;;;3.58;3.10;;;16.20;99.90;;;;;;5023046;28;20472;-77
2022/09/30 09:40:33;;;;;;;3.05;2.75;;;16.20;99.90;;;;;;5052512;28;20048;-77
2022/09/30 09:43:22;;;;;;;3.03;2.60;;;16.20;99.90;;;;;;5038552;28;20063;-77
2022/09/30 09:46:19;;;;;;;3.05;2.70;;;16.30;99.90;;;;;;5052647;28;20145;-77
2022/09/30 09:48:46;;;;;;;4.00;3.13;;;16.20;99.90;;;;;;5051325;28;20060;-77
2022/09/30 09:51:23;;;;;;;4.00;3.60;;;16.20;99.90;;;;;;5086338;28;20112;-77
2022/09/30 09:53:56;;;;;;;4.82;3.25;;;16.00;99.90;;;;;;5069057;28;20094;-76
2022/09/30 09:56:30;;;;;;;3.95;3.15;;;15.90;99.90;;;;;;5037389;28;20665;-76
2022/09/30 09:59:14;;;;;;;3.58;2.65;;;15.90;99.90;;;;;;5028131;28;20059;-76
2022/09/30 10:01:50;;;;;;;3.20;2.40;;;15.90;99.90;;;;;;5038324;28;20056;-77
2022/09/30 10:04:20;;;;;;;2.80;2.13;;;16.10;99.90;;;;;;5039562;28;20126;-77
2022/09/30 10:06:54;;;;;;;2.83;2.40;;;16.20;99.90;;;;;;5080789;28;20048;-77
2022/09/30 10:09:28;;;;;;;2.83;2.58;;;16.40;99.90;;;;;;5079854;28;20047;-77
2022/09/30 10:12:04;;;;;;;3.75;2.10;;;16.50;99.90;;;;;;5058987;28;20058;-76
2022/09/30 10:14:46;;;;;;;2.38;1.95;;;16.50;99.90;;;;;;5065948;28;20048;-77
2022/09/30 10:17:30;;;;;;;1.80;1.47;;;16.60;99.90;;;;;;5058514;28;20071;-77
2022/09/30 10:20:17;;;;;;;4.50;2.00;;;16.60;99.90;;;;;;5053589;28;20082;-77
2022/09/30 10:22:45;;;;;;;2.78;2.03;;;16.70;99.90;;;;;;5063487;28;20048;-77
2022/09/30 10:25:20;;;;;;;2.70;1.70;;;16.70;99.90;;;;;;5062290;28;20044;-76
2022/09/30 10:27:48;;;;;;;3.15;2.13;;;16.70;99.90;;;;;;5079567;28;20066;-76
2022/09/30 10:30:43;;;;;;;2.58;1.85;;;16.70;99.90;;;;;;5053553;28;20455;-76
2022/09/30 10:33:13;;;;;;;2.67;1.85;;;16.60;99.90;;;;;;5051919;28;20407;-77
2022/09/30 10:36:13;;;;;;;3.38;2.10;;;16.60;99.90;;;;;;5063026;28;20132;-77
2022/09/30 10:39:03;;;;;;;1.85;1.60;;;16.70;99.90;;;;;;5065223;28;20052;-76
2022/09/30 10:41:34;;;;;;;3.17;2.60;;;16.70;99.90;;;;;;5076677;28;20125;-77
2022/09/30 10:44:03;;;;;;;2.80;2.40;;;16.70;99.90;;;;;;5039902;28;20045;-77
2022/09/30 10:46:36;;;;;;;2.28;1.98;;;16.80;99.90;;;;;;5051408;28;20052;-77
2022/09/30 10:49:36;;;;;;;3.13;2.47;;;16.90;99.90;;;;;;5024189;28;20057;-77
2022/09/30 10:52:02;;;;;;;3.95;2.25;;;16.90;99.90;;;;;;5023505;28;20094;-77
2022/09/30 10:54:38;;;;;;;3.35;2.65;;;16.90;99.90;;;;;;5058405;28;20040;-77
2022/09/30 10:57:34;;;;;;;3.20;2.28;;;17.00;99.90;;;;;;5042006;28;20053;-77
2022/09/30 11:00:13;;;;;;;2.55;1.90;;;17.10;99.90;;;;;;5049804;28;20264;-77
2022/09/30 11:03:13;;;;;;;2.17;1.70;;;17.30;99.90;;;;;;5053021;28;20488;-77
2022/09/30 11:05:41;;;;;;;2.20;1.70;;;17.50;99.90;;;;;;5040658;28;20432;-77
2022/09/30 11:08:17;;;;;;;2.40;1.65;;;17.60;99.90;;;;;;5037762;28;20871;-77
2022/09/30 11:11:09;;;;;;;1.52;1.30;;;17.60;99.90;;;;;;5060424;28;20056;-77
2022/09/30 11:13:56;;;;;;;1.77;1.40;;;17.70;99.90;;;;;;5048412;28;20071;-78
2022/09/30 11:16:40;;;;;;;2.53;1.67;;;17.70;99.90;;;;;;5038578;28;20053;-77
2022/09/30 11:19:17;;;;;;;3.00;1.90;;;17.50;99.90;;;;;;5059787;28;20507;-78
2022/09/30 11:21:50;;;;;;;4.00;2.20;;;17.50;99.90;;;;;;5029041;28;20048;-77
2022/09/30 11:24:23;;;;;;;;;;;17.60;99.90;;;;;;5066584;28;20085;-78
2022/09/30 11:27:05;;;;;;;1.55;1.35;;;17.90;99.90;;;;;;5041450;28;20409;-77
2022/09/30 11:30:09;;;;;;;2.25;1.50;;;18.30;99.90;;;;;;5037590;28;20093;-76
2022/09/30 11:32:36;;;;;;;2.20;1.30;;;18.50;99.90;;;;;;5046020;28;20057;-77
2022/09/30 11:35:51;;;;;;;1.67;1.20;;;18.60;99.90;;;;;;5076227;28;20048;-77
2022/09/30 11:38:35;;;;;;;1.58;1.20;;;18.70;99.90;;;;;;5044814;28;20060;-77
2022/09/30 11:41:08;;;;;;;1.60;1.27;;;18.60;99.90;;;;;;5052230;28;20462;-77
2022/09/30 11:43:49;;;;;;;1.40;1.30;;;18.60;99.90;;;;;;5055029;28;20508;-77
2022/09/30 11:46:30;;;;;;;1.65;1.20;;;18.50;99.90;;;;;;5041121;28;20384;-77
2022/09/30 11:49:09;;;;;;;1.58;0.95;;;18.40;99.90;;;;;;5048984;28;20052;-77
2022/09/30 11:51:48;;;;;;;1.08;0.88;;;18.50;99.90;;;;;;5079287;28;20444;-77
2022/09/30 11:54:26;;;;;;;2.13;1.40;;;18.60;99.90;;;;;;5078487;28;20325;-77
2022/09/30 11:57:18;;;;;;;1.80;1.40;;;18.50;99.90;;;;;;5078639;28;20091;-77
2022/09/30 11:59:51;;;;;;;1.80;1.40;;;18.40;99.90;;;;;;5046677;28;20076;-77
2022/09/30 12:02:25;;;;;;;2.17;1.30;;;18.10;99.90;;;;;;5079949;28;20067;-77
2022/09/30 12:04:54;;;;;;;1.30;1.20;;;17.90;99.90;;;;;;5079762;28;20048;-77
2022/09/30 12:07:25;;;;;;;1.92;1.17;;;17.90;99.90;;;;;;5062155;28;20084;-77
2022/09/30 12:10:00;;;;;;;1.75;1.25;;;17.70;99.90;;;;;;5061672;28;20070;-77
2022/09/30 12:12:27;;;;;;;1.75;1.38;;;17.80;99.90;;;;;;5062404;28;20491;-77
2022/09/30 12:15:03;;;;;;;2.42;1.30;;;17.70;99.90;;;;;;5061999;28;20047;-77
2022/09/30 12:17:41;;;;;;;1.88;1.23;;;17.60;99.90;;;;;;5046270;28;20070;-77
2022/09/30 12:20:30;;;;;;;1.50;1.13;;;17.70;99.90;;;;;;5062014;28;20182;-77
2022/09/30 12:23:06;;;;;;;1.48;1.00;;;17.60;99.90;;;;;;5062445;28;20064;-76
2022/09/30 12:25:41;;;;;;;1.35;0.80;;;17.70;99.90;;;;;;5080268;28;20047;-76
2022/09/30 12:31:39;;;;;;;0.98;0.73;;;17.80;99.90;;;;;;5078634;28;20052;-76
2022/09/30 12:34:30;;;;;;;0.90;0.70;;;17.90;99.90;;;;;;5077069;28;20177;-76
2022/09/30 12:37:00;;;;;;;0.55;0.55;;;18.10;99.90;;;;;;5079625;28;20048;-75
2022/09/30 12:39:44;;;;;;;1.05;0.95;;;18.30;99.90;;;;;;5061312;28;20098;-76
2022/09/30 12:42:10;;;;;;;;;;;18.30;99.90;;;;;;5078619;28;20070;-76
2022/09/30 12:44:51;;;;;;;1.20;0.90;;;18.80;99.90;;;;;;5082022;28;19928;-75
2022/09/30 12:47:23;;;;;;;1.23;0.73;;;19.10;99.90;;;;;;5083181;28;20055;-76
2022/09/30 12:49:52;;;;;;;0.50;0.50;;;19.20;99.90;;;;;;5083432;28;20052;-76
2022/09/30 12:52:19;;;;;;;1.13;0.90;;;19.60;99.90;;;;;;5065778;28;20074;-76
2022/09/30 12:55:18;;;;;;;1.17;0.68;;;20.00;99.90;;;;;;5082551;28;20056;-76
2022/09/30 12:57:45;;;;;;;2.00;0.80;;;19.90;99.90;;;;;;5078701;28;20052;-76
2022/09/30 13:00:13;;;;;;;0.65;0.55;;;19.60;99.90;;;;;;5079897;28;20052;-76
2022/09/30 13:02:42;;;;;;;1.08;0.60;;;19.20;99.90;;;;;;5081500;28;20048;-76
2022/09/30 13:05:31;;;;;;;1.08;0.68;;;18.90;99.90;;;;;;5048972;28;20060;-76
2022/09/30 13:08:19;;;;;;;0.63;0.63;;;18.60;99.90;;;;;;5081018;28;20048;-76
2022/09/30 13:10:58;;;;;;;0.85;0.60;;;18.50;99.90;;;;;;5081741;28;20047;-76
2022/09/30 13:13:27;;;;;;;0.60;0.45;;;18.30;99.90;;;;;;5065036;28;20059;-76
2022/09/30 13:16:01;;;;;;;1.80;0.90;;;18.10;99.90;;;;;;5065347;28;20064;-75
2022/09/30 13:18:31;;;;;;;1.20;0.80;;;17.90;99.90;;;;;;5081307;28;20055;-76
2022/09/30 13:21:04;;;;;;;1.40;0.80;;;17.60;99.90;;;;;;5082218;28;20056;-76
2022/09/30 13:23:34;;;;;;;;;;;17.60;99.90;;;;;;5082452;28;20058;-75
2022/09/30 13:26:01;;;;;;;1.23;0.90;;;17.50;99.90;;;;;;5081771;28;19927;-76
2022/09/30 13:28:30;;;;;;;0.80;0.77;;;17.40;99.90;;;;;;5064901;28;20055;-75